Time;durP1;ratioP1;P1;durP2;ratioP2;P2;SDS_P1;SDS_P2;PMS_P1;PMS_P2;Temp;Humidity;BMP_temperature;BMP_pressure;BME280_temperature;BME280_humidity;BME280_pressure;Samples;Min_cycle;Max_cycle;Signal;HPM_P1;HPM_P2
2022/11/27 00:01:33;;;;;;;7.30;1.95;;;;;12.80;102273.00;;;;5006533;28;20204;-75
2022/11/27 00:04:00;;;;;;;9.52;2.50;;;;;12.80;102273.00;;;;5008618;28;20205;-76
2022/11/27 00:06:29;;;;;;;5.43;2.58;;;;;12.80;102267.00;;;;5007440;28;20227;-76
2022/11/27 00:08:57;;;;;;;2.45;1.70;;;;;12.80;102260.00;;;;5007298;28;20208;-76
2022/11/27 00:11:26;;;;;;;3.83;1.60;;;;;12.80;102256.00;;;;5008151;28;20212;-76
2022/11/27 00:13:54;;;;;;;7.25;3.10;;;;;12.80;102253.00;;;;5009005;28;20740;-75
2022/11/27 00:16:24;;;;;;;5.13;1.98;;;;;12.80;102248.00;;;;5011190;28;20197;-76
2022/11/27 00:18:52;;;;;;;4.35;2.10;;;;;12.80;102244.00;;;;5011848;28;20214;-75
2022/11/27 00:21:22;;;;;;;4.47;1.77;;;;;12.70;102234.00;;;;5019523;28;20196;-75
2022/11/27 00:23:50;;;;;;;4.85;1.88;;;;;12.80;102235.00;;;;5020974;28;20211;-75
2022/11/27 00:26:18;;;;;;;5.63;2.30;;;;;12.70;102227.00;;;;5027121;28;20200;-75
2022/11/27 00:28:45;;;;;;;5.35;2.05;;;;;12.70;102219.00;;;;5011256;28;20212;-76
2022/11/27 00:31:16;;;;;;;7.45;2.22;;;;;12.70;102221.00;;;;5025806;28;20208;-75
2022/11/27 00:33:45;;;;;;;4.47;2.42;;;;;12.70;102215.00;;;;5023128;28;20197;-76
2022/11/27 00:36:13;;;;;;;4.03;1.92;;;;;12.70;102212.00;;;;5028621;28;20204;-75
2022/11/27 00:38:41;;;;;;;6.90;2.58;;;;;12.70;102221.00;;;;5015431;28;20228;-75
2022/11/27 00:41:10;;;;;;;6.50;2.92;;;;;12.60;102227.00;;;;5026407;28;20200;-75
2022/11/27 00:43:38;;;;;;;5.82;2.30;;;;;12.60;102221.00;;;;5026678;28;20209;-76
2022/11/27 00:46:06;;;;;;;7.82;2.10;;;;;12.60;102214.00;;;;5026694;28;20200;-76
2022/11/27 00:48:34;;;;;;;4.45;1.80;;;;;12.60;102222.00;;;;5011286;28;20225;-76
2022/11/27 00:51:04;;;;;;;5.35;2.05;;;;;12.60;102217.00;;;;5026550;28;20208;-75
2022/11/27 00:53:32;;;;;;;5.85;2.38;;;;;12.60;102218.00;;;;5027424;28;20208;-76
2022/11/27 00:56:00;;;;;;;10.80;2.53;;;;;12.60;102213.00;;;;5022400;28;20216;-76
2022/11/27 00:58:29;;;;;;;6.68;2.40;;;;;12.50;102208.00;;;;5027023;28;20219;-76
2022/11/27 01:00:57;;;;;;;10.73;2.75;;;;;12.50;102211.00;;;;5010836;28;20201;-75
2022/11/27 01:03:26;;;;;;;7.82;3.08;;;;;12.50;102201.00;;;;5011064;28;20205;-76
2022/11/27 01:05:53;;;;;;;8.07;3.10;;;;;12.40;102204.00;;;;5020536;28;20473;-76
2022/11/27 01:08:22;;;;;;;7.65;2.63;;;;;12.50;102197.00;;;;5018399;28;20673;-75
2022/11/27 01:10:51;;;;;;;4.97;2.22;;;;;12.40;102194.00;;;;5019808;28;20209;-75
2022/11/27 01:13:18;;;;;;;4.93;2.10;;;;;12.40;102201.00;;;;5013861;28;20201;-75
2022/11/27 01:15:46;;;;;;;3.40;1.80;;;;;12.40;102201.00;;;;5009608;28;20220;-76
2022/11/27 01:18:13;;;;;;;3.90;1.88;;;;;12.40;102189.00;;;;5015524;28;20224;-75
2022/11/27 01:20:41;;;;;;;6.25;2.33;;;;;12.40;102185.00;;;;5013535;28;20527;-75
2022/11/27 01:23:08;;;;;;;5.68;2.13;;;;;12.40;102183.00;;;;5018368;28;20204;-75
2022/11/27 01:25:37;;;;;;;5.03;2.60;;;;;12.40;102180.00;;;;5013550;28;20197;-75
2022/11/27 01:28:05;;;;;;;5.50;2.03;;;;;12.40;102182.00;;;;5013614;28;20197;-76
2022/11/27 01:30:32;;;;;;;5.38;2.30;;;;;12.40;102177.00;;;;5012867;28;20212;-76
2022/11/27 01:32:59;;;;;;;8.27;2.10;;;;;12.50;102178.00;;;;5017666;28;20200;-76
2022/11/27 01:35:26;;;;;;;5.38;2.47;;;;;12.50;102177.00;;;;5017537;28;20233;-76
2022/11/27 01:37:53;;;;;;;6.70;2.95;;;;;12.50;102179.00;;;;5017082;28;20702;-75
2022/11/27 01:40:21;;;;;;;3.15;2.42;;;;;12.50;102178.00;;;;5014206;28;20208;-75
2022/11/27 01:42:49;;;;;;;5.55;2.28;;;;;12.50;102168.00;;;;5009482;28;20199;-75
2022/11/27 01:45:19;;;;;;;6.78;2.70;;;;;12.50;102161.00;;;;5013272;28;20204;-75
2022/11/27 01:47:49;;;;;;;6.28;2.53;;;;;12.50;102143.00;;;;5013136;28;20197;-75
2022/11/27 01:50:21;;;;;;;3.55;2.40;;;;;12.50;102139.00;;;;5014000;28;20655;-75
2022/11/27 01:52:52;;;;;;;3.78;2.42;;;;;12.50;102145.00;;;;5005873;28;20193;-76
2022/11/27 01:55:27;;;;;;;4.60;2.17;;;;;12.40;102140.00;;;;5014346;28;20193;-75
2022/11/27 01:57:58;;;;;;;4.05;2.25;;;;;12.40;102125.00;;;;5010897;28;20702;-75
2022/11/27 02:00:26;;;;;;;6.18;2.70;;;;;12.50;102114.00;;;;5028340;28;20204;-75
2022/11/27 02:02:53;;;;;;;5.30;2.70;;;;;12.50;102105.00;;;;5028921;28;20207;-75
2022/11/27 02:05:24;;;;;;;6.85;3.13;;;;;12.40;102103.00;;;;5015200;28;20201;-75
2022/11/27 02:07:52;;;;;;;8.25;2.05;;;;;12.40;102109.00;;;;5019273;28;20299;-75
2022/11/27 02:10:20;;;;;;;4.85;2.55;;;;;12.40;102108.00;;;;5029294;28;20196;-75
2022/11/27 02:12:55;;;;;;;6.50;3.10;;;;;12.40;102108.00;;;;5024808;28;20574;-75
2022/11/27 02:15:32;;;;;;;5.38;2.20;;;;;12.30;102099.00;;;;5010864;28;20200;-75
2022/11/27 02:18:08;;;;;;;5.07;2.65;;;;;12.30;102094.00;;;;5011492;28;20571;-75
2022/11/27 02:20:45;;;;;;;5.55;2.30;;;;;12.30;102090.00;;;;5009863;28;20201;-75
2022/11/27 02:23:32;;;;;;;7.60;2.53;;;;;12.20;102085.00;;;;5009935;28;20203;-75
2022/11/27 02:26:17;;;;;;;7.22;2.35;;;;;12.20;102083.00;;;;5023323;28;20685;-75
2022/11/27 02:28:59;;;;;;;4.15;2.25;;;;;12.20;102089.00;;;;5011998;28;20196;-76
2022/11/27 02:31:32;;;;;;;7.65;2.78;;;;;12.30;102092.00;;;;5027347;28;20205;-75
2022/11/27 02:34:11;;;;;;;6.90;2.63;;;;;12.20;102085.00;;;;5009226;28;20209;-75
2022/11/27 02:36:43;;;;;;;6.90;2.60;;;;;12.20;102088.00;;;;5009192;28;20212;-75
2022/11/27 02:39:17;;;;;;;7.72;2.67;;;;;12.20;102095.00;;;;5018799;28;20232;-75
2022/11/27 02:41:50;;;;;;;6.15;2.80;;;;;12.20;102093.00;;;;5019688;28;20200;-75
2022/11/27 02:44:19;;;;;;;8.23;3.70;;;;;12.20;102084.00;;;;5018093;28;20219;-75
2022/11/27 02:46:48;;;;;;;5.05;2.33;;;;;12.20;102091.00;;;;5017225;28;20211;-75
2022/11/27 02:49:19;;;;;;;7.78;2.92;;;;;12.20;102084.00;;;;5012120;28;20205;-75
2022/11/27 02:51:53;;;;;;;5.75;2.70;;;;;12.20;102087.00;;;;5015692;28;20685;-75
2022/11/27 02:54:26;;;;;;;6.18;2.45;;;;;12.20;102080.00;;;;5023428;28;20207;-76
2022/11/27 02:56:57;;;;;;;4.05;2.83;;;;;12.20;102089.00;;;;5009417;28;20224;-76
2022/11/27 02:59:29;;;;;;;5.82;2.80;;;;;12.20;102081.00;;;;5020372;28;20215;-76
2022/11/27 03:02:01;;;;;;;5.53;2.10;;;;;12.20;102077.00;;;;5016637;28;20259;-76
2022/11/27 03:04:33;;;;;;;8.27;2.95;;;;;12.20;102082.00;;;;5019640;28;20205;-76
2022/11/27 03:07:05;;;;;;;5.25;3.08;;;;;12.20;102081.00;;;;5011333;28;20203;-76
2022/11/27 03:09:36;;;;;;;7.43;2.63;;;;;12.20;102078.00;;;;5016960;28;20580;-76
2022/11/27 03:12:06;;;;;;;4.78;2.58;;;;;12.20;102074.00;;;;5025202;28;20207;-76
2022/11/27 03:14:37;;;;;;;4.72;2.80;;;;;12.20;102073.00;;;;5026905;28;20681;-75
2022/11/27 03:17:09;;;;;;;4.35;2.58;;;;;12.20;102079.00;;;;5025916;28;20196;-75
2022/11/27 03:19:43;;;;;;;3.58;2.65;;;;;12.20;102076.00;;;;5007651;28;20196;-76
2022/11/27 03:22:12;;;;;;;6.60;2.90;;;;;12.20;102079.00;;;;5015239;28;20266;-76
2022/11/27 03:24:39;;;;;;;5.68;2.47;;;;;12.20;102086.00;;;;5026688;28;20628;-76
2022/11/27 03:27:06;;;;;;;5.50;2.58;;;;;12.20;102087.00;;;;5017512;28;20196;-76
2022/11/27 03:29:45;;;;;;;7.22;2.72;;;;;12.20;102085.00;;;;5016966;28;20196;-76
2022/11/27 03:32:13;;;;;;;9.48;3.17;;;;;12.20;102081.00;;;;5018031;28;20192;-76
2022/11/27 03:34:42;;;;;;;7.75;3.15;;;;;12.20;102076.00;;;;5008956;28;20239;-76
2022/11/27 03:37:09;;;;;;;6.80;3.20;;;;;12.20;102072.00;;;;5012834;28;20208;-76
2022/11/27 03:39:37;;;;;;;7.80;3.25;;;;;12.20;102061.00;;;;5008368;28;20227;-76
2022/11/27 03:42:18;;;;;;;7.40;3.28;;;;;12.20;102060.00;;;;5010619;28;20196;-77
2022/11/27 03:44:53;;;;;;;5.80;2.88;;;;;12.20;102053.00;;;;5008461;28;20201;-76
2022/11/27 03:47:32;;;;;;;5.90;3.17;;;;;12.20;102052.00;;;;5013886;28;20197;-76
2022/11/27 03:50:14;;;;;;;6.80;3.10;;;;;12.20;102042.00;;;;5011550;28;20201;-76
2022/11/27 03:52:51;;;;;;;6.40;3.60;;;;;12.20;102053.00;;;;5011739;28;20513;-76
2022/11/27 03:55:27;;;;;;;6.50;3.38;;;;;12.20;102044.00;;;;5026587;28;20212;-76
2022/11/27 03:58:00;;;;;;;5.95;3.25;;;;;12.30;102046.00;;;;5023985;28;20228;-75
2022/11/27 04:00:33;;;;;;;6.47;2.97;;;;;12.30;102049.00;;;;5012543;28;20575;-76
2022/11/27 04:03:01;;;;;;;6.70;2.67;;;;;12.30;102045.00;;;;5015246;28;20200;-76
2022/11/27 04:05:29;;;;;;;8.88;2.90;;;;;12.30;102041.00;;;;5030043;28;20208;-76
2022/11/27 04:07:56;;;;;;;5.50;2.95;;;;;12.30;102037.00;;;;5023345;28;20197;-76
2022/11/27 04:10:23;;;;;;;3.83;2.67;;;;;12.30;102055.00;;;;5012825;28;20590;-76
2022/11/27 04:12:50;;;;;;;5.25;3.00;;;;;12.30;102064.00;;;;5029932;28;20200;-76
2022/11/27 04:15:18;;;;;;;5.35;2.88;;;;;12.30;102064.00;;;;5025326;28;20212;-76
2022/11/27 04:17:46;;;;;;;5.03;3.45;;;;;12.30;102066.00;;;;5025435;28;20205;-76
2022/11/27 04:20:15;;;;;;;5.32;3.05;;;;;12.30;102066.00;;;;5011268;28;20199;-76
2022/11/27 04:22:42;;;;;;;6.95;2.75;;;;;12.30;102058.00;;;;5011798;28;20205;-76
2022/11/27 04:25:10;;;;;;;5.50;2.95;;;;;12.30;102058.00;;;;5011986;28;20208;-76
2022/11/27 04:27:37;;;;;;;7.88;3.58;;;;;12.30;102059.00;;;;5019994;28;20608;-76
2022/11/27 04:30:05;;;;;;;6.93;2.90;;;;;12.30;102053.00;;;;5012146;28;20200;-76
2022/11/27 04:32:33;;;;;;;5.57;3.70;;;;;12.30;102053.00;;;;5025344;28;20204;-76
2022/11/27 04:35:01;;;;;;;6.13;3.00;;;;;12.30;102051.00;;;;5016530;28;20236;-76
2022/11/27 04:37:29;;;;;;;5.20;2.88;;;;;12.30;102042.00;;;;5019995;28;20212;-76
2022/11/27 04:39:56;;;;;;;5.18;3.05;;;;;12.30;102037.00;;;;5011122;28;20229;-76
2022/11/27 04:42:23;;;;;;;4.93;3.00;;;;;12.30;102031.00;;;;5017209;28;20785;-76
2022/11/27 04:44:51;;;;;;;5.55;3.05;;;;;12.30;102025.00;;;;5015422;28;20205;-76
2022/11/27 04:47:18;;;;;;;6.43;2.20;;;;;12.30;102015.00;;;;5022205;28;20200;-76
2022/11/27 04:49:46;;;;;;;6.75;2.97;;;;;12.30;102018.00;;;;5031616;28;20204;-76
2022/11/27 04:52:15;;;;;;;4.88;2.80;;;;;12.30;102019.00;;;;5021296;28;20201;-76
2022/11/27 04:54:42;;;;;;;5.22;2.72;;;;;12.30;102017.00;;;;5010901;28;20209;-76
2022/11/27 04:57:09;;;;;;;6.47;2.47;;;;;12.30;102015.00;;;;5017103;28;20216;-76
2022/11/27 04:59:37;;;;;;;6.53;2.80;;;;;12.30;102014.00;;;;5031072;28;20231;-76
2022/11/27 05:02:04;;;;;;;5.03;2.88;;;;;12.30;102011.00;;;;5023148;28;20201;-76
2022/11/27 05:04:32;;;;;;;4.25;2.47;;;;;12.30;102008.00;;;;5011177;28;20204;-76
2022/11/27 05:06:59;;;;;;;5.57;3.10;;;;;12.30;102000.00;;;;5024695;28;21043;-76
2022/11/27 05:09:28;;;;;;;5.25;2.58;;;;;12.30;102001.00;;;;5013490;28;20212;-76
2022/11/27 05:11:55;;;;;;;6.13;2.50;;;;;12.30;102001.00;;;;5015157;28;20212;-77
2022/11/27 05:14:27;;;;;;;3.88;2.15;;;;;12.30;101989.00;;;;5028286;28;20207;-76
2022/11/27 05:16:56;;;;;;;7.05;2.72;;;;;12.30;101982.00;;;;5013437;28;20227;-77
2022/11/27 05:19:25;;;;;;;5.38;2.38;;;;;12.30;101985.00;;;;5019128;28;20229;-76
2022/11/27 05:21:53;;;;;;;8.05;2.70;;;;;12.30;101982.00;;;;5030655;28;20212;-76
2022/11/27 05:24:22;;;;;;;2.97;2.03;;;;;12.30;101979.00;;;;5025061;28;20223;-76
2022/11/27 05:26:51;;;;;;;3.05;2.15;;;;;12.30;101974.00;;;;5023159;28;20201;-76
2022/11/27 05:29:18;;;;;;;5.00;2.50;;;;;12.30;101964.00;;;;5030391;28;20209;-76
2022/11/27 05:31:46;;;;;;;6.47;2.40;;;;;12.30;101975.00;;;;5014299;28;20203;-75
2022/11/27 05:34:14;;;;;;;5.50;2.58;;;;;12.30;101979.00;;;;5013153;28;20223;-77
2022/11/27 05:36:42;;;;;;;3.38;2.28;;;;;12.30;101971.00;;;;5024953;28;20216;-76
2022/11/27 05:39:11;;;;;;;5.85;2.63;;;;;12.30;101976.00;;;;5030019;28;20238;-76
2022/11/27 05:41:40;;;;;;;4.80;2.60;;;;;12.30;101966.00;;;;5028673;28;20208;-76
2022/11/27 05:44:12;;;;;;;6.30;2.58;;;;;12.30;101964.00;;;;5017516;28;20206;-76
2022/11/27 05:46:42;;;;;;;4.47;2.33;;;;;12.40;101964.00;;;;5015935;28;20193;-76
2022/11/27 05:49:11;;;;;;;5.80;1.98;;;;;12.40;101965.00;;;;5016326;28;20200;-76
2022/11/27 05:51:39;;;;;;;5.53;2.58;;;;;12.40;101968.00;;;;5016271;28;20197;-76
2022/11/27 05:54:06;;;;;;;5.88;2.47;;;;;12.40;101966.00;;;;5011737;28;20548;-76
2022/11/27 05:56:34;;;;;;;2.22;1.80;;;;;12.40;101960.00;;;;5026199;28;20227;-76
2022/11/27 05:59:01;;;;;;;3.47;1.83;;;;;12.40;101964.00;;;;5010102;28;20221;-77
2022/11/27 06:01:30;;;;;;;4.13;2.53;;;;;12.40;101956.00;;;;5021641;28;20208;-76
2022/11/27 06:03:57;;;;;;;4.72;2.33;;;;;12.40;101958.00;;;;5015010;28;20205;-76
2022/11/27 06:06:24;;;;;;;4.97;2.25;;;;;12.40;101952.00;;;;5016664;28;20196;-76
2022/11/27 06:08:52;;;;;;;3.70;2.20;;;;;12.40;101960.00;;;;5020163;28;20209;-76
2022/11/27 06:11:22;;;;;;;5.10;1.90;;;;;12.40;101944.00;;;;5018886;28;20207;-76
2022/11/27 06:13:50;;;;;;;9.68;2.95;;;;;12.40;101951.00;;;;5012285;28;20656;-76
2022/11/27 06:16:19;;;;;;;4.70;2.58;;;;;12.40;101945.00;;;;5017915;28;20646;-76
2022/11/27 06:18:50;;;;;;;3.35;2.08;;;;;12.40;101943.00;;;;5016180;28;20232;-77
2022/11/27 06:21:17;;;;;;;6.30;2.13;;;;;12.50;101954.00;;;;5021167;28;21066;-76
2022/11/27 06:23:46;;;;;;;5.05;2.47;;;;;12.50;101945.00;;;;5020165;28;20208;-76
2022/11/27 06:26:15;;;;;;;6.25;2.70;;;;;12.50;101944.00;;;;5027809;28;20574;-77
2022/11/27 06:28:43;;;;;;;3.05;2.03;;;;;12.50;101933.00;;;;5011021;28;20205;-77
2022/11/27 06:31:13;;;;;;;4.63;2.03;;;;;12.50;101931.00;;;;5020958;28;20811;-77
2022/11/27 06:33:40;;;;;;;2.20;1.90;;;;;12.50;101938.00;;;;5027184;28;20200;-76
2022/11/27 06:36:10;;;;;;;5.07;2.00;;;;;12.50;101933.00;;;;5020139;28;20231;-76
2022/11/27 06:38:39;;;;;;;3.63;2.25;;;;;12.50;101930.00;;;;5017517;28;20229;-77
2022/11/27 06:41:08;;;;;;;3.70;2.15;;;;;12.50;101930.00;;;;5023400;28;20204;-77
2022/11/27 06:43:36;;;;;;;4.38;2.13;;;;;12.50;101931.00;;;;5016534;28;20197;-77
2022/11/27 06:46:05;;;;;;;3.80;2.05;;;;;12.50;101915.00;;;;5017891;28;20209;-77
2022/11/27 06:48:33;;;;;;;3.67;2.13;;;;;12.50;101920.00;;;;5019362;28;20644;-77
2022/11/27 06:51:01;;;;;;;2.90;2.13;;;;;12.50;101925.00;;;;5021964;28;20196;-77
2022/11/27 06:53:30;;;;;;;3.85;1.98;;;;;12.50;101912.00;;;;5017623;28;20215;-77
2022/11/27 06:55:57;;;;;;;3.40;2.25;;;;;12.50;101911.00;;;;5015937;28;20204;-77
2022/11/27 06:58:25;;;;;;;11.50;2.47;;;;;12.50;101917.00;;;;5020277;28;20214;-77
2022/11/27 07:00:57;;;;;;;2.75;1.88;;;;;12.50;101913.00;;;;5013483;28;20693;-77
2022/11/27 07:03:25;;;;;;;7.10;2.78;;;;;12.60;101913.00;;;;5018267;28;20691;-77
2022/11/27 07:05:52;;;;;;;4.70;1.95;;;;;12.50;101916.00;;;;5011891;28;20212;-77
2022/11/27 07:08:20;;;;;;;4.50;2.22;;;;;12.50;101903.00;;;;5028021;28;20207;-77
2022/11/27 07:10:48;;;;;;;3.58;2.10;;;;;12.50;101895.00;;;;5028573;28;20589;-77
2022/11/27 07:13:15;;;;;;;3.05;1.77;;;;;12.50;101890.00;;;;5023645;28;20239;-76
2022/11/27 07:15:43;;;;;;;3.58;1.92;;;;;12.50;101892.00;;;;5008104;28;20204;-75
2022/11/27 07:18:10;;;;;;;3.40;2.28;;;;;12.50;101886.00;;;;5026908;28;20200;-76
2022/11/27 07:20:37;;;;;;;5.43;2.47;;;;;12.50;101886.00;;;;5015591;28;20231;-76
2022/11/27 07:23:05;;;;;;;5.22;2.88;;;;;12.50;101884.00;;;;5016601;28;20196;-76
2022/11/27 07:25:32;;;;;;;4.03;2.08;;;;;12.50;101885.00;;;;5020776;28;20196;-75
2022/11/27 07:28:00;;;;;;;3.83;2.10;;;;;12.50;101880.00;;;;5017191;28;20224;-75
2022/11/27 07:30:28;;;;;;;4.32;2.17;;;;;12.60;101870.00;;;;5018754;28;20204;-75
2022/11/27 07:33:02;;;;;;;4.53;2.25;;;;;12.60;101865.00;;;;5026224;28;20212;-75
2022/11/27 07:35:30;;;;;;;3.78;2.05;;;;;12.50;101870.00;;;;5017775;28;20231;-77
2022/11/27 07:37:57;;;;;;;4.22;1.88;;;;;12.50;101854.00;;;;5024887;28;20196;-77
2022/11/27 07:40:25;;;;;;;4.30;1.77;;;;;12.50;101851.00;;;;5024039;28;20222;-77
2022/11/27 07:42:54;;;;;;;3.92;2.17;;;;;12.50;101847.00;;;;5012652;28;20189;-77
2022/11/27 07:45:23;;;;;;;3.88;1.90;;;;;12.50;101841.00;;;;5013474;28;20197;-77
2022/11/27 07:47:50;;;;;;;3.38;2.13;;;;;12.50;101840.00;;;;5008799;28;20205;-77
2022/11/27 07:50:18;;;;;;;3.63;2.05;;;;;12.50;101842.00;;;;5012855;28;20204;-77
2022/11/27 07:52:45;;;;;;;5.93;2.30;;;;;12.50;101848.00;;;;5013673;28;20201;-77
2022/11/27 07:55:12;;;;;;;4.30;2.20;;;;;12.50;101840.00;;;;5014536;28;20588;-77
2022/11/27 07:57:41;;;;;;;6.40;2.55;;;;;12.50;101849.00;;;;5020022;28;20217;-77
2022/11/27 08:00:09;;;;;;;2.97;1.88;;;;;12.50;101843.00;;;;5025206;28;20254;-76
2022/11/27 08:02:38;;;;;;;3.10;1.67;;;;;12.50;101842.00;;;;5030131;28;20207;-77
2022/11/27 08:05:06;;;;;;;5.13;2.20;;;;;12.50;101846.00;;;;5032776;28;20200;-77
2022/11/27 08:07:33;;;;;;;4.50;1.90;;;;;12.60;101842.00;;;;5032495;28;20212;-76
2022/11/27 08:10:01;;;;;;;4.63;1.90;;;;;12.60;101840.00;;;;5018783;28;20216;-76
2022/11/27 08:12:28;;;;;;;4.20;1.45;;;;;12.60;101844.00;;;;5027995;28;20647;-76
2022/11/27 08:14:55;;;;;;;2.80;1.75;;;;;12.60;101845.00;;;;5029103;28;20196;-75
2022/11/27 08:17:23;;;;;;;4.63;1.70;;;;;12.60;101839.00;;;;5016312;28;20228;-75
2022/11/27 08:19:52;;;;;;;5.68;2.08;;;;;12.60;101834.00;;;;5017289;28;20228;-75
2022/11/27 08:22:19;;;;;;;3.90;2.05;;;;;12.60;101825.00;;;;5025422;28;20564;-75
2022/11/27 08:24:47;;;;;;;3.70;1.80;;;;;12.60;101828.00;;;;5019381;28;20203;-75
2022/11/27 08:27:15;;;;;;;4.65;2.20;;;;;12.60;101833.00;;;;5016277;28;20201;-76
2022/11/27 08:29:42;;;;;;;4.07;2.40;;;;;12.60;101836.00;;;;5019079;28;20201;-76
2022/11/27 08:32:10;;;;;;;2.75;1.83;;;;;12.60;101837.00;;;;5015850;28;20189;-76
2022/11/27 08:34:38;;;;;;;3.90;2.13;;;;;12.60;101834.00;;;;5027254;28;20236;-76
2022/11/27 08:37:07;;;;;;;3.67;1.80;;;;;12.60;101835.00;;;;5012974;28;20223;-76
2022/11/27 08:39:34;;;;;;;4.03;1.80;;;;;12.70;101839.00;;;;5026217;28;20219;-76
2022/11/27 08:42:02;;;;;;;5.25;2.42;;;;;12.60;101833.00;;;;5013857;28;20200;-75
2022/11/27 08:44:29;;;;;;;3.97;1.90;;;;;12.70;101838.00;;;;5023241;28;20196;-76
2022/11/27 08:46:56;;;;;;;5.28;2.58;;;;;12.70;101827.00;;;;5027269;28;20216;-79
2022/11/27 08:49:24;;;;;;;3.20;1.90;;;;;12.70;101829.00;;;;5016728;28;20288;-77
2022/11/27 08:51:51;;;;;;;4.47;2.90;;;;;12.70;101825.00;;;;5029780;28;20203;-76
2022/11/27 08:54:20;;;;;;;4.13;2.50;;;;;12.70;101829.00;;;;5021211;28;20207;-78
2022/11/27 08:56:47;;;;;;;4.13;2.50;;;;;12.80;101838.00;;;;5014438;28;20786;-77
2022/11/27 08:59:14;;;;;;;6.72;2.72;;;;;12.80;101842.00;;;;5021332;28;20231;-77
2022/11/27 09:01:42;;;;;;;6.15;2.65;;;;;12.80;101835.00;;;;5011476;28;20887;-77
2022/11/27 09:04:09;;;;;;;4.60;1.95;;;;;12.80;101836.00;;;;5026100;28;20223;-77
2022/11/27 09:06:36;;;;;;;3.33;2.25;;;;;12.80;101838.00;;;;5016016;28;20633;-77
2022/11/27 09:09:05;;;;;;;4.25;2.25;;;;;12.80;101836.00;;;;5029456;28;20196;-77
2022/11/27 09:11:35;;;;;;;3.38;2.22;;;;;12.80;101832.00;;;;5016304;28;20211;-77
2022/11/27 09:14:04;;;;;;;3.03;1.98;;;;;12.80;101823.00;;;;5026765;28;20589;-77
2022/11/27 09:16:31;;;;;;;4.38;2.70;;;;;12.90;101827.00;;;;5019337;28;20204;-76
2022/11/27 09:18:59;;;;;;;4.95;2.28;;;;;12.90;101817.00;;;;5021810;28;20192;-78
2022/11/27 09:21:27;;;;;;;4.20;2.50;;;;;12.90;101822.00;;;;5015546;28;20204;-78
2022/11/27 09:23:55;;;;;;;4.93;2.05;;;;;12.90;101821.00;;;;5018605;28;20528;-77
2022/11/27 09:26:24;;;;;;;3.90;2.08;;;;;12.90;101823.00;;;;5017249;28;20255;-78
2022/11/27 09:28:53;;;;;;;6.10;2.70;;;;;12.90;101818.00;;;;5020401;28;20204;-77
2022/11/27 09:31:21;;;;;;;2.97;2.17;;;;;13.00;101829.00;;;;5025329;28;20583;-77
2022/11/27 09:33:49;;;;;;;3.58;2.67;;;;;13.00;101811.00;;;;5016265;28;20201;-78
2022/11/27 09:36:18;;;;;;;6.88;3.03;;;;;13.00;101816.00;;;;5020208;28;20195;-77
2022/11/27 09:38:46;;;;;;;3.40;2.53;;;;;13.10;101816.00;;;;5023420;28;20193;-77
2022/11/27 09:41:35;;;;;;;3.83;2.50;;;;;13.00;101812.00;;;;5021286;28;20227;-77
2022/11/27 09:44:14;;;;;;;2.05;1.55;;;;;13.00;101814.00;;;;5015063;28;20211;-77
2022/11/27 09:46:43;;;;;;;6.43;2.78;;;;;13.10;101807.00;;;;5012285;28;20201;-77
2022/11/27 09:49:14;;;;;;;4.00;2.80;;;;;13.10;101806.00;;;;5017035;28;20200;-78
2022/11/27 09:51:47;;;;;;;5.50;2.90;;;;;13.10;101804.00;;;;5016005;28;20811;-76
2022/11/27 09:54:18;;;;;;;4.38;2.33;;;;;13.10;101799.00;;;;5017739;28;20661;-77
2022/11/27 09:56:49;;;;;;;4.05;2.08;;;;;13.10;101794.00;;;;5011100;28;20225;-76
2022/11/27 09:59:20;;;;;;;4.03;2.60;;;;;13.10;101792.00;;;;5023204;28;20658;-77
2022/11/27 10:01:48;;;;;;;4.65;2.45;;;;;13.20;101790.00;;;;5016675;28;20201;-77
2022/11/27 10:04:18;;;;;;;3.88;2.80;;;;;13.20;101785.00;;;;5011538;28;20208;-78
2022/11/27 10:06:59;;;;;;;4.10;2.72;;;;;13.10;101789.00;;;;5010916;28;20197;-79
2022/11/27 10:09:35;;;;;;;4.10;2.63;;;;;13.20;101785.00;;;;5013248;28;20220;-77
2022/11/27 10:12:13;;;;;;;4.88;3.33;;;;;13.20;101778.00;;;;5022535;28;20574;-78
2022/11/27 10:14:54;;;;;;;3.35;2.40;;;;;13.20;101779.00;;;;5010478;28;20422;-78
2022/11/27 10:17:29;;;;;;;3.85;2.88;;;;;13.30;101767.00;;;;5014177;28;20200;-77
2022/11/27 10:20:10;;;;;;;3.65;2.30;;;;;13.20;101762.00;;;;5014551;28;20212;-77
2022/11/27 10:22:46;;;;;;;4.20;2.85;;;;;13.30;101761.00;;;;5012637;28;20211;-79
2022/11/27 10:25:19;;;;;;;4.03;2.58;;;;;13.30;101763.00;;;;5012647;28;20202;-78
2022/11/27 10:27:57;;;;;;;5.70;2.63;;;;;13.30;101764.00;;;;5009369;28;20646;-78
2022/11/27 10:30:29;;;;;;;3.67;2.55;;;;;13.40;101764.00;;;;5018055;28;20204;-79
2022/11/27 10:32:58;;;;;;;6.75;2.88;;;;;13.40;101756.00;;;;5016726;28;20205;-78
2022/11/27 10:35:27;;;;;;;4.20;2.63;;;;;13.40;101761.00;;;;5015392;28;20230;-78
2022/11/27 10:37:59;;;;;;;4.55;2.92;;;;;13.40;101753.00;;;;5018221;28;20196;-78
2022/11/27 10:40:30;;;;;;;4.35;2.83;;;;;13.40;101744.00;;;;5020491;28;20230;-78
2022/11/27 10:43:05;;;;;;;5.35;3.03;;;;;13.40;101744.00;;;;5018574;28;20201;-77
2022/11/27 10:45:43;;;;;;;3.42;2.80;;;;;13.40;101746.00;;;;5010625;28;20215;-76
2022/11/27 10:48:11;;;;;;;4.28;2.88;;;;;13.50;101737.00;;;;5009063;28;20205;-76
2022/11/27 10:50:40;;;;;;;4.95;3.00;;;;;13.60;101730.00;;;;5008608;28;20226;-76
2022/11/27 10:53:10;;;;;;;5.03;2.75;;;;;13.60;101732.00;;;;5010275;28;20204;-77
2022/11/27 10:55:52;;;;;;;7.15;3.58;;;;;13.60;101729.00;;;;5009531;28;20217;-78
2022/11/27 10:58:27;;;;;;;5.38;2.95;;;;;13.60;101728.00;;;;5011455;28;20303;-78
2022/11/27 11:01:04;;;;;;;3.28;2.75;;;;;13.60;101721.00;;;;5013883;28;20234;-79
2022/11/27 11:03:31;;;;;;;5.72;2.85;;;;;13.70;101713.00;;;;5027331;28;20198;-78
2022/11/27 11:06:01;;;;;;;4.90;3.03;;;;;13.70;101705.00;;;;5017323;28;20200;-78
2022/11/27 11:08:29;;;;;;;3.85;2.97;;;;;13.80;101706.00;;;;5022845;28;20388;-78
2022/11/27 11:10:59;;;;;;;4.72;2.95;;;;;13.80;101695.00;;;;5014868;28;20741;-78
2022/11/27 11:13:27;;;;;;;4.18;2.83;;;;;13.80;101690.00;;;;5025691;28;20219;-79
2022/11/27 11:15:57;;;;;;;4.63;2.80;;;;;13.80;101692.00;;;;5017422;28;20196;-79
2022/11/27 11:18:28;;;;;;;4.30;3.45;;;;;13.90;101695.00;;;;5016037;28;20201;-78
2022/11/27 11:20:58;;;;;;;5.68;3.75;;;;;13.90;101697.00;;;;5018824;28;20637;-78
2022/11/27 11:23:35;;;;;;;6.55;3.65;;;;;13.90;101682.00;;;;5012257;28;20205;-78
2022/11/27 11:26:13;;;;;;;4.95;3.20;;;;;13.90;101681.00;;;;5012182;28;20670;-78
2022/11/27 11:28:48;;;;;;;5.05;3.13;;;;;13.90;101669.00;;;;5013028;28;20203;-77
2022/11/27 11:31:18;;;;;;;5.50;3.63;;;;;14.00;101667.00;;;;5017445;28;20207;-77
2022/11/27 11:33:55;;;;;;;6.78;3.22;;;;;14.00;101660.00;;;;5021813;28;20608;-77
2022/11/27 11:36:23;;;;;;;5.75;2.75;;;;;14.10;101658.00;;;;5026541;28;20510;-77
2022/11/27 11:38:51;;;;;;;5.47;3.28;;;;;14.10;101656.00;;;;5011367;28;20201;-77
2022/11/27 11:41:19;;;;;;;4.18;3.15;;;;;14.10;101654.00;;;;5016191;28;20224;-77
2022/11/27 11:44:04;;;;;;;5.32;3.63;;;;;14.10;101654.00;;;;5018875;28;20215;-77
2022/11/27 11:46:35;;;;;;;5.53;3.28;;;;;14.20;101648.00;;;;5006727;28;20208;-77
2022/11/27 11:49:07;;;;;;;6.60;3.13;;;;;14.20;101636.00;;;;5021825;28;20208;-77
2022/11/27 11:51:50;;;;;;;4.00;3.10;;;;;14.20;101628.00;;;;5008651;28;20193;-77
2022/11/27 11:54:30;;;;;;;4.57;3.40;;;;;14.30;101632.00;;;;5009322;28;20575;-78
2022/11/27 11:57:01;;;;;;;4.18;3.45;;;;;14.30;101622.00;;;;5007754;28;20213;-78
2022/11/27 11:59:38;;;;;;;5.15;3.15;;;;;14.30;101627.00;;;;5008289;28;20651;-77
2022/11/27 12:02:37;;;;;;;4.43;3.15;;;;;14.30;101619.00;;;;5011616;28;20189;-77
2022/11/27 12:05:20;;;;;;;7.22;3.17;;;;;14.30;101619.00;;;;5008572;28;20255;-78
2022/11/27 12:08:08;;;;;;;3.45;2.50;;;;;14.30;101602.00;;;;5010764;28;20232;-78
2022/11/27 12:10:47;;;;;;;4.35;3.35;;;;;14.40;101601.00;;;;5020890;28;20200;-77
2022/11/27 12:13:24;;;;;;;4.93;2.97;;;;;14.40;101598.00;;;;5014528;28;20200;-78
2022/11/27 12:16:03;;;;;;;7.03;3.20;;;;;14.40;101597.00;;;;5016503;28;20206;-77
2022/11/27 12:18:39;;;;;;;3.95;2.70;;;;;14.40;101579.00;;;;5016160;28;20188;-76
2022/11/27 12:21:15;;;;;;;5.47;2.97;;;;;14.40;101571.00;;;;5011846;28;20244;-76
2022/11/27 12:24:06;;;;;;;4.88;3.05;;;;;14.40;101561.00;;;;5022205;28;20604;-76